createdAt,value
2019-04-29T00:02:10.907Z,13.88
2019-04-29T00:04:38.274Z,15.98
2019-04-29T00:07:06.215Z,12.75
2019-04-29T00:09:33.794Z,12.35
2019-04-29T00:12:01.364Z,16.15
2019-04-29T00:14:29.697Z,11.33
2019-04-29T00:16:59.110Z,13.60
2019-04-29T00:19:46.030Z,14.50
2019-04-29T00:22:14.866Z,10.80
2019-04-29T00:24:42.498Z,12.95
2019-04-29T00:27:10.114Z,12.68
2019-04-29T00:29:38.034Z,12.00
2019-04-29T00:32:05.831Z,12.93
2019-04-29T00:34:33.405Z,11.03
2019-04-29T00:37:05.468Z,13.00
2019-04-29T00:39:32.996Z,13.65
2019-04-29T00:42:05.200Z,14.20
2019-04-29T00:44:32.500Z,12.65
2019-04-29T00:47:00.255Z,11.80
2019-04-29T00:49:27.891Z,12.53
2019-04-29T00:51:55.355Z,13.58
2019-04-29T00:54:25.266Z,10.25
2019-04-29T00:59:19.911Z,9.53
2019-04-29T01:01:47.761Z,10.18
2019-04-29T01:04:15.658Z,11.68
2019-04-29T01:06:42.962Z,10.82
2019-04-29T01:09:13.609Z,12.05
2019-04-29T01:11:41.641Z,10.00
2019-04-29T01:14:09.368Z,9.08
2019-04-29T01:16:37.028Z,9.63
2019-04-29T01:19:04.571Z,9.25
2019-04-29T01:21:32.068Z,10.40
2019-04-29T01:23:59.322Z,11.83
2019-04-29T01:26:30.027Z,8.90
2019-04-29T01:29:05.611Z,8.75
2019-04-29T01:31:33.184Z,8.83
2019-04-29T01:34:02.569Z,10.15
2019-04-29T01:36:33.187Z,8.45
2019-04-29T01:39:01.966Z,9.03
2019-04-29T01:41:41.224Z,8.25
2019-04-29T01:44:10.493Z,8.00
2019-04-29T01:46:37.838Z,8.03
2019-04-29T01:49:05.232Z,7.83
2019-04-29T01:51:32.729Z,8.18
2019-04-29T01:54:00.352Z,8.58
2019-04-29T01:56:28.004Z,7.90
2019-04-29T01:58:55.837Z,8.85
2019-04-29T02:01:23.292Z,8.68
2019-04-29T02:03:51.673Z,8.98
2019-04-29T02:06:19.181Z,10.25
2019-04-29T02:08:47.110Z,9.73
2019-04-29T02:11:14.405Z,10.78
2019-04-29T02:13:41.838Z,11.33
2019-04-29T02:16:09.255Z,12.00
2019-04-29T02:18:36.603Z,14.73
2019-04-29T02:21:05.305Z,14.93
2019-04-29T02:23:46.685Z,24.45
2019-04-29T02:26:14.196Z,27.17
2019-04-29T02:28:41.368Z,28.95
2019-04-29T02:31:27.285Z,29.52
2019-04-29T02:33:54.786Z,28.07
2019-04-29T02:36:22.361Z,28.42
2019-04-29T02:39:08.332Z,26.77
2019-04-29T02:41:54.854Z,27.62
2019-04-29T02:44:22.204Z,28.10
2019-04-29T02:46:49.610Z,26.25
2019-04-29T02:49:17.014Z,25.97
2019-04-29T02:51:49.702Z,27.02
2019-04-29T02:54:17.218Z,25.27
2019-04-29T02:56:52.559Z,22.48
2019-04-29T02:59:34.421Z,18.52
2019-04-29T03:02:04.334Z,20.52
2019-04-29T03:04:38.261Z,19.17
2019-04-29T03:07:05.651Z,17.62
2019-04-29T03:09:34.930Z,17.07
2019-04-29T03:12:02.544Z,15.63
2019-04-29T03:14:30.673Z,16.05
2019-04-29T03:16:58.170Z,16.75
2019-04-29T03:19:30.383Z,15.55
2019-04-29T03:22:02.046Z,16.50
2019-04-29T03:24:30.955Z,16.52
2019-04-29T03:26:58.574Z,20.30
2019-04-29T03:29:25.749Z,19.23
2019-04-29T03:31:54.322Z,20.52
2019-04-29T03:34:22.053Z,18.10
2019-04-29T03:36:49.647Z,20.82
2019-04-29T03:39:17.062Z,20.20
2019-04-29T03:41:44.395Z,18.20
2019-04-29T03:44:11.836Z,20.02
2019-04-29T03:46:39.209Z,21.93
2019-04-29T03:49:06.522Z,20.48
2019-04-29T03:51:34.732Z,20.95
2019-04-29T03:54:02.240Z,23.70
2019-04-29T03:56:30.067Z,22.95
2019-04-29T03:58:57.438Z,23.50
2019-04-29T04:01:32.851Z,22.13
2019-04-29T04:04:05.354Z,23.05
2019-04-29T04:06:32.620Z,22.22
2019-04-29T04:09:05.837Z,21.97
2019-04-29T04:11:31.151Z,21.68
2019-04-29T04:13:58.526Z,24.92
2019-04-29T04:16:44.868Z,21.75
2019-04-29T04:19:12.586Z,20.52
2019-04-29T04:21:40.109Z,19.85
2019-04-29T04:24:07.311Z,19.85
2019-04-29T04:26:34.548Z,22.32
2019-04-29T04:29:01.816Z,20.23
2019-04-29T04:31:29.222Z,24.82
2019-04-29T04:33:56.917Z,20.77
2019-04-29T04:36:24.106Z,20.43
2019-04-29T04:38:51.501Z,19.40
2019-04-29T04:41:18.813Z,20.65
2019-04-29T04:43:46.095Z,21.68
2019-04-29T04:46:13.566Z,20.72
2019-04-29T04:48:40.836Z,23.42
2019-04-29T04:51:08.101Z,21.97
2019-04-29T04:53:35.366Z,23.85
2019-04-29T04:56:03.419Z,22.45
2019-04-29T04:58:32.847Z,23.45
2019-04-29T05:01:00.290Z,24.45
2019-04-29T05:03:27.933Z,24.40
2019-04-29T05:05:55.450Z,25.08
2019-04-29T05:08:24.044Z,25.32
2019-04-29T05:10:51.448Z,24.15
2019-04-29T05:13:27.818Z,24.60
2019-04-29T05:15:48.134Z,27.10
2019-04-29T05:18:15.410Z,23.60
2019-04-29T05:20:43.280Z,24.40
2019-04-29T05:23:10.504Z,24.85
2019-04-29T05:25:37.957Z,26.00
2019-04-29T05:28:05.672Z,24.00
2019-04-29T05:30:32.896Z,26.65
2019-04-29T05:33:00.338Z,24.95
2019-04-29T05:35:30.875Z,28.15
2019-04-29T05:38:01.239Z,29.77
2019-04-29T05:40:42.665Z,26.17
2019-04-29T05:43:11.795Z,26.20
2019-04-29T05:45:46.229Z,26.23
2019-04-29T05:48:16.244Z,24.43
2019-04-29T05:50:47.583Z,23.30
2019-04-29T05:53:17.923Z,24.80
2019-04-29T05:55:45.716Z,24.47
2019-04-29T05:58:13.277Z,25.95
2019-04-29T06:00:43.730Z,26.73
2019-04-29T06:03:11.329Z,24.67
2019-04-29T06:05:38.888Z,20.97
2019-04-29T06:08:06.465Z,24.30
2019-04-29T06:10:33.835Z,22.42
2019-04-29T06:13:01.170Z,20.97
2019-04-29T06:15:29.303Z,27.15
2019-04-29T06:17:57.333Z,25.32
2019-04-29T06:20:26.688Z,24.35
2019-04-29T06:22:53.977Z,23.12
2019-04-29T06:25:22.480Z,26.20
2019-04-29T06:27:50.351Z,25.12
2019-04-29T06:30:18.207Z,21.27
2019-04-29T06:32:45.747Z,23.98
2019-04-29T06:35:14.215Z,22.65
2019-04-29T06:37:42.164Z,22.05
2019-04-29T06:40:09.928Z,22.20
2019-04-29T06:42:37.411Z,25.00
2019-04-29T06:45:07.445Z,19.80
2019-04-29T06:47:35.964Z,20.90
2019-04-29T06:50:07.167Z,22.58
2019-04-29T06:52:34.732Z,22.98
2019-04-29T06:55:02.542Z,20.17
2019-04-29T06:57:30.079Z,20.48
2019-04-29T06:59:57.911Z,23.40
2019-04-29T07:02:25.270Z,19.45
2019-04-29T07:04:52.677Z,20.65
2019-04-29T07:07:20.061Z,18.92
2019-04-29T07:09:47.633Z,17.50
2019-04-29T07:12:15.539Z,18.98
2019-04-29T07:14:43.094Z,17.90
2019-04-29T07:17:10.822Z,17.77
2019-04-29T07:19:38.256Z,19.35
2019-04-29T07:22:07.297Z,19.82
2019-04-29T07:24:34.455Z,17.02
2019-04-29T07:27:02.820Z,15.80
2019-04-29T07:29:33.500Z,19.17
2019-04-29T07:32:04.804Z,21.12
2019-04-29T07:34:33.671Z,19.48
2019-04-29T07:36:59.915Z,19.62
2019-04-29T07:39:31.648Z,20.62
2019-04-29T07:41:56.657Z,25.48
2019-04-29T07:44:29.998Z,18.77
2019-04-29T07:47:01.864Z,20.70
2019-04-29T07:49:26.048Z,18.45
2019-04-29T07:51:53.381Z,18.90
2019-04-29T07:54:21.101Z,20.52
2019-04-29T07:56:48.650Z,20.95
2019-04-29T07:59:16.122Z,21.15
2019-04-29T08:01:43.524Z,21.68
2019-04-29T08:04:11.113Z,23.67
2019-04-29T08:06:42.780Z,23.90
2019-04-29T08:09:09.714Z,25.57
2019-04-29T08:11:37.435Z,24.72
2019-04-29T08:14:04.763Z,24.30
2019-04-29T08:16:32.410Z,22.77
2019-04-29T08:18:59.682Z,23.57
2019-04-29T08:21:27.176Z,26.07
2019-04-29T08:23:54.708Z,24.25
2019-04-29T08:26:22.128Z,24.55
2019-04-29T08:28:53.031Z,23.95
2019-04-29T08:31:21.030Z,23.80
2019-04-29T08:33:48.507Z,21.15
2019-04-29T08:36:16.054Z,20.97
2019-04-29T08:38:43.521Z,22.05
2019-04-29T08:41:10.913Z,20.02
2019-04-29T08:44:14.661Z,23.65
2019-04-29T08:46:27.990Z,21.68
2019-04-29T08:49:01.093Z,22.40
2019-04-29T08:51:26.704Z,20.48
2019-04-29T08:53:54.162Z,22.37
2019-04-29T08:56:21.373Z,19.25
2019-04-29T08:58:49.632Z,20.43
2019-04-29T09:01:17.986Z,21.75
2019-04-29T09:03:45.442Z,22.07
2019-04-29T09:06:12.769Z,19.27
2019-04-29T09:08:54.163Z,20.45
2019-04-29T09:11:12.818Z,23.27
2019-04-29T09:13:39.183Z,21.85
2019-04-29T09:16:07.202Z,20.68
2019-04-29T09:18:34.618Z,21.80
2019-04-29T09:21:01.970Z,21.23
2019-04-29T09:23:31.512Z,20.57
2019-04-29T09:26:02.831Z,19.52
2019-04-29T09:28:30.426Z,20.10
2019-04-29T09:30:57.730Z,21.17
2019-04-29T09:33:25.239Z,20.02
2019-04-29T09:35:52.718Z,21.90
2019-04-29T09:38:20.149Z,19.87
2019-04-29T09:40:49.402Z,22.70
2019-04-29T09:43:33.662Z,20.05
2019-04-29T09:46:06.703Z,20.17
2019-04-29T09:48:34.134Z,18.45
2019-04-29T09:51:16.382Z,18.20
2019-04-29T09:53:32.877Z,22.62
2019-04-29T09:56:00.288Z,19.77
2019-04-29T09:58:27.964Z,22.93
2019-04-29T10:01:01.339Z,20.32
2019-04-29T10:03:47.183Z,23.77
2019-04-29T10:06:16.522Z,27.22
2019-04-29T10:08:44.066Z,21.93
2019-04-29T10:11:12.351Z,24.18
2019-04-29T10:13:39.888Z,23.55
2019-04-29T10:16:09.692Z,24.32
2019-04-29T10:18:44.984Z,25.20
2019-04-29T10:21:19.638Z,22.45
2019-04-29T10:23:43.988Z,28.05
2019-04-29T10:26:11.353Z,25.57
2019-04-29T10:28:40.463Z,26.12
2019-04-29T10:31:08.299Z,25.00
2019-04-29T10:33:35.626Z,28.45
2019-04-29T10:36:07.188Z,24.32
2019-04-29T10:38:34.416Z,26.97
2019-04-29T10:41:10.171Z,26.73
2019-04-29T10:43:56.339Z,29.37
2019-04-29T10:46:30.002Z,27.32
2019-04-29T10:49:08.522Z,26.07
2019-04-29T10:51:36.388Z,27.67
2019-04-29T10:54:04.696Z,30.82
2019-04-29T10:56:35.291Z,29.20
2019-04-29T11:02:19.837Z,30.62
2019-04-29T11:04:54.301Z,31.33
2019-04-29T11:07:29.566Z,30.25
2019-04-29T11:09:59.071Z,30.32
2019-04-29T11:12:26.493Z,29.48
2019-04-29T11:14:53.903Z,29.23
2019-04-29T11:17:23.232Z,30.10
2019-04-29T11:19:52.043Z,30.50
2019-04-29T11:22:21.527Z,33.60
2019-04-29T11:25:07.677Z,33.05
2019-04-29T11:27:56.224Z,35.20
2019-04-29T11:30:29.650Z,30.77
2019-04-29T11:33:00.126Z,31.05
2019-04-29T11:35:29.806Z,34.53
2019-04-29T11:37:59.904Z,31.55
2019-04-29T11:40:42.531Z,34.78
2019-04-29T11:42:57.861Z,34.65
2019-04-29T11:45:25.624Z,31.35
2019-04-29T11:47:53.243Z,36.70
2019-04-29T11:50:27.068Z,30.17
2019-04-29T11:52:55.669Z,32.78
2019-04-29T11:55:23.211Z,28.17
2019-04-29T11:57:58.350Z,29.85
2019-04-29T12:00:28.971Z,27.40
2019-04-29T12:02:58.440Z,30.37
2019-04-29T12:05:30.963Z,30.05
2019-04-29T12:07:58.350Z,31.50
2019-04-29T12:10:25.780Z,30.72
2019-04-29T12:12:53.237Z,30.65
2019-04-29T12:15:28.787Z,31.10
2019-04-29T12:18:15.482Z,31.50
2019-04-29T12:20:51.707Z,33.13
2019-04-29T12:23:20.171Z,29.35
2019-04-29T12:25:48.611Z,33.55
2019-04-29T12:28:19.418Z,29.92
2019-04-29T12:30:47.296Z,28.70
2019-04-29T12:33:16.944Z,30.10
2019-04-29T12:36:05.241Z,27.10
2019-04-29T12:38:39.662Z,28.73
2019-04-29T12:41:20.618Z,27.95
2019-04-29T12:43:59.121Z,29.00
2019-04-29T12:46:26.023Z,28.32
2019-04-29T12:48:53.359Z,27.15
2019-04-29T12:51:20.881Z,26.85
2019-04-29T12:53:48.215Z,25.10
2019-04-29T12:56:17.731Z,22.35
2019-04-29T12:58:50.222Z,21.95
2019-04-29T13:01:20.498Z,22.80
2019-04-29T13:03:59.869Z,24.07
2019-04-29T13:06:39.192Z,19.60
2019-04-29T13:09:17.237Z,23.45
2019-04-29T13:11:40.924Z,21.25
2019-04-29T13:14:04.599Z,22.73
2019-04-29T13:16:32.074Z,27.30
2019-04-29T13:19:20.323Z,20.50
2019-04-29T13:21:47.400Z,27.22
2019-04-29T13:24:23.689Z,22.87
2019-04-29T13:26:45.679Z,27.90
2019-04-29T13:29:26.261Z,24.10
2019-04-29T13:31:42.504Z,23.02
2019-04-29T13:34:23.636Z,22.07
2019-04-29T13:36:41.247Z,21.60
2019-04-29T13:39:10.368Z,21.52
2019-04-29T13:41:57.358Z,21.70
2019-04-29T13:46:40.474Z,20.40
2019-04-29T13:49:13.542Z,18.55
2019-04-29T13:51:41.411Z,19.10
2019-04-29T13:54:09.068Z,17.17
2019-04-29T13:56:54.657Z,19.80
2019-04-29T13:59:10.711Z,16.15
2019-04-29T14:02:01.458Z,16.70
2019-04-29T14:04:26.204Z,18.00
2019-04-29T14:06:57.207Z,19.80
2019-04-29T14:09:23.330Z,19.27
2019-04-29T14:12:01.851Z,18.17
2019-04-29T14:14:22.650Z,18.20
2019-04-29T14:16:49.586Z,15.60
2019-04-29T14:19:20.583Z,17.67
2019-04-29T14:21:46.212Z,17.92
2019-04-29T14:24:13.692Z,17.45
2019-04-29T14:26:42.114Z,20.65
2019-04-29T14:29:10.577Z,18.07
2019-04-29T14:31:38.515Z,18.02
2019-04-29T14:34:08.093Z,16.57
2019-04-29T14:36:35.595Z,18.80
2019-04-29T14:39:06.803Z,19.00
2019-04-29T14:41:36.321Z,23.10
2019-04-29T14:44:07.360Z,24.77
2019-04-29T14:46:38.432Z,20.62
2019-04-29T14:49:24.503Z,19.32
2019-04-29T14:51:52.077Z,19.10
2019-04-29T14:54:19.894Z,19.07
2019-04-29T14:56:47.092Z,20.02
2019-04-29T14:59:15.117Z,20.37
2019-04-29T15:01:44.781Z,15.78
2019-04-29T15:04:18.260Z,18.40
2019-04-29T15:06:45.014Z,19.07
2019-04-29T15:09:17.484Z,17.23
2019-04-29T15:11:54.212Z,17.10
2019-04-29T15:14:42.386Z,19.10
2019-04-29T15:17:17.842Z,23.87
2019-04-29T15:19:48.936Z,17.80
2019-04-29T15:22:18.594Z,16.73
2019-04-29T15:24:46.128Z,17.67
2019-04-29T15:27:13.681Z,19.90
2019-04-29T15:29:40.990Z,16.60
2019-04-29T15:32:11.364Z,20.32
2019-04-29T15:34:43.702Z,19.07
2019-04-29T15:37:08.007Z,20.25
2019-04-29T15:39:35.456Z,18.15
2019-04-29T15:42:06.946Z,22.55
2019-04-29T15:44:34.218Z,22.22
2019-04-29T15:47:01.769Z,26.20
2019-04-29T15:49:29.256Z,25.43
2019-04-29T15:51:56.701Z,22.45
2019-04-29T15:54:26.005Z,26.87
2019-04-29T15:56:53.452Z,24.18
2019-04-29T15:59:21.844Z,26.65
2019-04-29T16:01:49.246Z,25.05
2019-04-29T16:04:37.048Z,24.70
2019-04-29T16:07:19.513Z,27.90
2019-04-29T16:09:51.747Z,29.20
2019-04-29T16:12:19.708Z,25.35
2019-04-29T16:14:49.165Z,26.55
2019-04-29T16:17:20.559Z,28.90
2019-04-29T16:19:47.129Z,28.35
2019-04-29T16:22:20.177Z,33.53
2019-04-29T16:24:44.364Z,38.33
2019-04-29T16:27:11.857Z,38.83
2019-04-29T16:29:39.318Z,38.45
2019-04-29T16:32:08.784Z,40.05
2019-04-29T16:34:37.437Z,40.30
2019-04-29T16:39:35.072Z,41.25
2019-04-29T16:42:05.408Z,38.70
2019-04-29T16:44:36.098Z,37.63
2019-04-29T16:47:07.446Z,34.67
2019-04-29T16:49:34.455Z,33.45
2019-04-29T16:52:02.124Z,37.25
2019-04-29T16:54:30.494Z,34.65
2019-04-29T16:56:57.734Z,36.90
2019-04-29T16:59:25.433Z,35.48
2019-04-29T17:01:53.285Z,42.35
2019-04-29T17:04:20.877Z,40.80
2019-04-29T17:07:11.100Z,33.70
2019-04-29T17:09:23.281Z,37.10
2019-04-29T17:14:18.927Z,42.33
2019-04-29T17:16:46.325Z,41.15
2019-04-29T17:19:13.869Z,45.58
2019-04-29T17:21:41.215Z,43.83
2019-04-29T17:24:08.660Z,46.85
2019-04-29T17:26:38.392Z,44.18
2019-04-29T17:29:38.650Z,39.90
2019-04-29T17:32:06.069Z,41.35
2019-04-29T17:34:58.044Z,41.35
2019-04-29T17:37:06.002Z,41.70
2019-04-29T17:39:33.739Z,38.60
2019-04-29T17:42:01.203Z,35.13
2019-04-29T17:44:31.009Z,34.38
2019-04-29T17:47:03.042Z,34.10
2019-04-29T17:49:33.270Z,35.78
2019-04-29T17:52:02.787Z,38.53
2019-04-29T17:54:37.924Z,35.95
2019-04-29T17:57:25.623Z,36.08
2019-04-29T18:00:00.502Z,36.77
2019-04-29T18:05:16.734Z,35.83
2019-04-29T18:07:48.330Z,38.50
2019-04-29T18:10:23.934Z,39.05
2019-04-29T18:12:46.781Z,39.40
2019-04-29T18:15:20.042Z,37.10
2019-04-29T18:17:45.718Z,40.98
2019-04-29T18:20:29.755Z,42.60
2019-04-29T18:23:01.300Z,40.30
2019-04-29T18:25:36.529Z,42.70
2019-04-29T18:28:04.802Z,44.50
2019-04-29T18:30:37.971Z,41.77
2019-04-29T18:33:01.640Z,43.05
2019-04-29T18:35:29.131Z,43.98
2019-04-29T18:37:56.702Z,34.85
2019-04-29T18:40:25.850Z,35.50
2019-04-29T18:42:55.265Z,38.58
2019-04-29T18:45:25.393Z,34.90
2019-04-29T18:47:53.488Z,34.55
2019-04-29T18:50:21.037Z,33.65
2019-04-29T18:52:48.519Z,37.48
2019-04-29T18:55:15.834Z,37.17
2019-04-29T18:57:43.179Z,36.45
2019-04-29T19:00:11.926Z,38.05
2019-04-29T19:02:46.074Z,33.98
2019-04-29T19:05:11.677Z,38.42
2019-04-29T19:07:39.802Z,38.17
2019-04-29T19:10:14.168Z,38.17
2019-04-29T19:12:39.349Z,39.55
2019-04-29T19:15:11.537Z,42.27
2019-04-29T19:17:39.982Z,37.25
2019-04-29T19:20:08.613Z,42.75
2019-04-29T19:22:39.959Z,40.30
2019-04-29T19:25:08.726Z,40.23
2019-04-29T19:27:39.788Z,41.40
2019-04-29T19:30:07.963Z,39.23
2019-04-29T19:32:37.339Z,40.52
2019-04-29T19:35:06.168Z,40.52
2019-04-29T19:37:37.553Z,40.30
2019-04-29T19:40:08.050Z,41.83
2019-04-29T19:42:35.901Z,44.73
2019-04-29T19:45:06.334Z,46.42
2019-04-29T19:47:36.161Z,46.37
2019-04-29T19:50:10.301Z,43.85
2019-04-29T19:52:37.167Z,46.73
2019-04-29T19:55:06.521Z,46.95
2019-04-29T19:57:37.883Z,48.35
2019-04-29T20:00:07.042Z,47.38
2019-04-29T20:02:36.242Z,54.38
2019-04-29T20:05:16.075Z,48.92
2019-04-29T20:07:44.582Z,51.77
2019-04-29T20:10:13.884Z,53.28
2019-04-29T20:12:45.953Z,49.33
2019-04-29T20:15:12.164Z,50.65
2019-04-29T20:17:58.931Z,49.15
2019-04-29T20:20:38.528Z,46.92
2019-04-29T20:23:05.788Z,54.73
2019-04-29T20:25:38.039Z,53.05
2019-04-29T20:28:12.752Z,51.10
2019-04-29T20:30:36.404Z,49.80
2019-04-29T20:33:11.106Z,51.23
2019-04-29T20:35:35.554Z,53.05
2019-04-29T20:38:02.995Z,55.83
2019-04-29T20:43:01.832Z,59.03
2019-04-29T20:45:29.738Z,63.90
2019-04-29T20:47:57.407Z,57.55
2019-04-29T20:50:25.479Z,59.33
2019-04-29T20:53:02.365Z,61.23
2019-04-29T20:55:31.970Z,65.80
2019-04-29T20:58:00.468Z,63.25
2019-04-29T21:00:30.336Z,61.60
2019-04-29T21:02:58.062Z,59.65
2019-04-29T21:05:27.645Z,68.10
2019-04-29T21:08:02.961Z,69.95
2019-04-29T21:10:26.659Z,65.70
2019-04-29T21:13:01.521Z,65.20
2019-04-29T21:15:52.116Z,67.58
2019-04-29T21:18:16.226Z,68.35
2019-04-29T21:20:45.133Z,66.22
2019-04-29T21:23:13.199Z,61.03
2019-04-29T21:25:40.398Z,62.83
2019-04-29T21:28:07.855Z,62.70
2019-04-29T21:30:42.529Z,67.62
2019-04-29T21:33:08.244Z,63.33
2019-04-29T21:35:39.805Z,60.78
2019-04-29T21:38:22.168Z,63.38
2019-04-29T21:40:52.539Z,60.17
2019-04-29T21:43:22.024Z,61.60
2019-04-29T21:45:49.491Z,61.20
2019-04-29T21:48:18.655Z,54.23
2019-04-29T21:50:46.230Z,55.85
2019-04-29T21:53:15.061Z,56.65
2019-04-29T21:55:42.789Z,52.87
2019-04-29T21:58:10.240Z,51.53
2019-04-29T22:00:38.132Z,60.95
2019-04-29T22:03:05.699Z,52.95
2019-04-29T22:05:35.023Z,62.03
2019-04-29T22:08:04.182Z,57.50
2019-04-29T22:10:34.422Z,59.42
2019-04-29T22:13:02.392Z,60.85
2019-04-29T22:15:37.331Z,60.50
2019-04-29T22:18:01.685Z,56.95
2019-04-29T22:20:30.075Z,59.53
2019-04-29T22:22:58.095Z,57.15
2019-04-29T22:25:25.854Z,57.50
2019-04-29T22:27:55.416Z,54.63
2019-04-29T22:30:23.463Z,49.55
2019-04-29T22:32:58.071Z,48.68
2019-04-29T22:35:21.660Z,50.83
2019-04-29T22:37:49.241Z,52.62
2019-04-29T22:40:17.416Z,48.50
2019-04-29T22:42:48.763Z,44.88
2019-04-29T22:45:16.673Z,42.75
2019-04-29T22:47:43.884Z,43.95
2019-04-29T22:50:11.683Z,40.38
2019-04-29T22:52:39.382Z,39.00
2019-04-29T22:55:07.745Z,41.55
2019-04-29T22:57:35.104Z,37.88
2019-04-29T23:00:06.257Z,36.85
2019-04-29T23:02:33.599Z,35.40
2019-04-29T23:05:01.115Z,33.48
2019-04-29T23:07:30.165Z,28.77
2019-04-29T23:09:58.143Z,28.90
2019-04-29T23:12:25.487Z,27.37
2019-04-29T23:14:53.206Z,26.75
2019-04-29T23:17:20.451Z,28.87
2019-04-29T23:19:53.047Z,26.35
2019-04-29T23:22:40.811Z,23.85
2019-04-29T23:25:10.242Z,24.10
2019-04-29T23:27:37.803Z,26.17
2019-04-29T23:30:07.916Z,30.25
2019-04-29T23:32:39.471Z,25.95
2019-04-29T23:35:09.761Z,24.35
2019-04-29T23:37:37.163Z,24.32
2019-04-29T23:40:05.850Z,27.30
2019-04-29T23:42:33.453Z,27.20
2019-04-29T23:45:01.062Z,28.40
2019-04-29T23:47:29.004Z,24.07
2019-04-29T23:49:56.570Z,24.15
2019-04-29T23:52:23.989Z,27.25
2019-04-29T23:54:51.636Z,27.35
2019-04-29T23:57:23.693Z,28.83
2019-04-29T23:59:59.313Z,26.75
